sensor_id;sensor_type;location;lat;lon;timestamp;P1;durP1;ratioP1;P2;durP2;ratioP2
33403;SDS011;19751;40.274;18.268;2023-01-06T07:16:32;31.17;;;19.75;;
33403;SDS011;19751;40.274;18.268;2023-01-06T07:18:58;36.47;;;20.80;;
33403;SDS011;19751;40.274;18.268;2023-01-06T07:21:24;33.15;;;20.67;;
33403;SDS011;19751;40.274;18.268;2023-01-06T07:23:49;32.15;;;21.67;;
33403;SDS011;19751;40.274;18.268;2023-01-06T07:26:15;34.22;;;20.67;;
33403;SDS011;19751;40.274;18.268;2023-01-06T07:28:40;47.83;;;26.42;;
33403;SDS011;19751;40.274;18.268;2023-01-06T07:31:06;33.50;;;22.40;;
33403;SDS011;19751;40.274;18.268;2023-01-06T07:33:31;37.17;;;23.55;;
33403;SDS011;19751;40.274;18.268;2023-01-06T07:35:56;38.78;;;24.20;;
33403;SDS011;19751;40.274;18.268;2023-01-06T07:38:22;43.05;;;26.10;;
33403;SDS011;19751;40.274;18.268;2023-01-06T07:40:49;36.65;;;21.95;;
33403;SDS011;19751;40.274;18.268;2023-01-06T07:43:15;36.20;;;22.48;;
33403;SDS011;19751;40.274;18.268;2023-01-06T07:45:44;35.80;;;22.70;;
33403;SDS011;19751;40.274;18.268;2023-01-06T07:48:11;38.42;;;23.13;;
33403;SDS011;19751;40.274;18.268;2023-01-06T07:50:37;35.97;;;22.50;;
33403;SDS011;19751;40.274;18.268;2023-01-06T07:53:02;35.22;;;23.30;;
33403;SDS011;19751;40.274;18.268;2023-01-06T07:55:28;37.58;;;22.42;;
33403;SDS011;19751;40.274;18.268;2023-01-06T07:57:54;41.83;;;25.98;;
33403;SDS011;19751;40.274;18.268;2023-01-06T08:00:20;38.08;;;24.75;;
33403;SDS011;19751;40.274;18.268;2023-01-06T08:02:45;38.83;;;24.30;;
33403;SDS011;19751;40.274;18.268;2023-01-06T08:05:11;38.10;;;23.08;;
33403;SDS011;19751;40.274;18.268;2023-01-06T08:07:36;31.23;;;21.50;;
33403;SDS011;19751;40.274;18.268;2023-01-06T08:10:02;35.30;;;22.63;;
33403;SDS011;19751;40.274;18.268;2023-01-06T08:12:28;34.53;;;21.20;;
33403;SDS011;19751;40.274;18.268;2023-01-06T08:14:53;34.85;;;22.13;;
33403;SDS011;19751;40.274;18.268;2023-01-06T08:17:19;36.08;;;22.77;;
33403;SDS011;19751;40.274;18.268;2023-01-06T08:19:44;36.67;;;22.63;;
33403;SDS011;19751;40.274;18.268;2023-01-06T08:22:10;30.90;;;20.38;;
33403;SDS011;19751;40.274;18.268;2023-01-06T08:24:36;35.33;;;22.65;;
33403;SDS011;19751;40.274;18.268;2023-01-06T08:27:01;36.35;;;23.33;;
33403;SDS011;19751;40.274;18.268;2023-01-06T08:29:27;30.42;;;21.52;;
33403;SDS011;19751;40.274;18.268;2023-01-06T08:31:52;35.92;;;23.00;;
33403;SDS011;19751;40.274;18.268;2023-01-06T08:34:18;37.92;;;24.88;;
33403;SDS011;19751;40.274;18.268;2023-01-06T08:36:44;38.60;;;23.92;;
33403;SDS011;19751;40.274;18.268;2023-01-06T08:39:11;40.85;;;24.88;;
33403;SDS011;19751;40.274;18.268;2023-01-06T08:41:38;39.65;;;24.35;;
33403;SDS011;19751;40.274;18.268;2023-01-06T08:44:04;36.30;;;22.75;;
33403;SDS011;19751;40.274;18.268;2023-01-06T08:46:30;33.45;;;22.20;;
33403;SDS011;19751;40.274;18.268;2023-01-06T08:48:56;30.50;;;20.35;;
33403;SDS011;19751;40.274;18.268;2023-01-06T08:51:22;32.05;;;20.80;;
33403;SDS011;19751;40.274;18.268;2023-01-06T08:53:48;29.83;;;18.77;;
33403;SDS011;19751;40.274;18.268;2023-01-06T08:56:19;25.02;;;16.75;;
33403;SDS011;19751;40.274;18.268;2023-01-06T08:58:52;30.95;;;18.95;;
33403;SDS011;19751;40.274;18.268;2023-01-06T09:01:23;33.60;;;18.92;;
33403;SDS011;19751;40.274;18.268;2023-01-06T09:03:51;26.50;;;15.80;;
33403;SDS011;19751;40.274;18.268;2023-01-06T09:06:17;26.33;;;18.42;;
33403;SDS011;19751;40.274;18.268;2023-01-06T09:08:44;28.08;;;19.17;;
33403;SDS011;19751;40.274;18.268;2023-01-06T09:11:10;34.63;;;18.50;;
33403;SDS011;19751;40.274;18.268;2023-01-06T09:13:36;31.70;;;19.13;;
33403;SDS011;19751;40.274;18.268;2023-01-06T09:16:06;27.08;;;17.58;;
33403;SDS011;19751;40.274;18.268;2023-01-06T09:18:33;27.98;;;17.02;;
33403;SDS011;19751;40.274;18.268;2023-01-06T09:20:59;25.20;;;16.70;;
33403;SDS011;19751;40.274;18.268;2023-01-06T09:23:26;24.38;;;16.10;;
33403;SDS011;19751;40.274;18.268;2023-01-06T09:25:53;26.05;;;16.15;;
33403;SDS011;19751;40.274;18.268;2023-01-06T09:28:20;29.67;;;17.45;;
33403;SDS011;19751;40.274;18.268;2023-01-06T09:30:47;28.67;;;17.33;;
33403;SDS011;19751;40.274;18.268;2023-01-06T09:33:15;23.05;;;15.95;;
33403;SDS011;19751;40.274;18.268;2023-01-06T09:35:44;27.65;;;15.40;;
33403;SDS011;19751;40.274;18.268;2023-01-06T09:38:11;22.88;;;15.63;;
33403;SDS011;19751;40.274;18.268;2023-01-06T09:40:44;25.13;;;14.80;;
33403;SDS011;19751;40.274;18.268;2023-01-06T09:45:47;24.35;;;15.40;;
33403;SDS011;19751;40.274;18.268;2023-01-06T09:48:20;21.23;;;14.68;;
33403;SDS011;19751;40.274;18.268;2023-01-06T09:50:52;27.42;;;16.17;;
33403;SDS011;19751;40.274;18.268;2023-01-06T09:53:39;25.50;;;15.50;;
33403;SDS011;19751;40.274;18.268;2023-01-06T09:56:11;34.03;;;14.30;;
33403;SDS011;19751;40.274;18.268;2023-01-06T09:58:47;23.95;;;14.98;;
33403;SDS011;19751;40.274;18.268;2023-01-06T10:01:18;24.65;;;15.38;;
33403;SDS011;19751;40.274;18.268;2023-01-06T10:03:52;18.70;;;12.48;;
33403;SDS011;19751;40.274;18.268;2023-01-06T10:28:08;14.80;;;9.35;;
33403;SDS011;19751;40.274;18.268;2023-01-06T10:31:08;13.77;;;9.75;;
33403;SDS011;19751;40.274;18.268;2023-01-06T10:33:46;17.05;;;10.82;;
33403;SDS011;19751;40.274;18.268;2023-01-06T10:36:16;17.58;;;9.40;;
33403;SDS011;19751;40.274;18.268;2023-01-06T10:38:48;17.67;;;9.82;;
33403;SDS011;19751;40.274;18.268;2023-01-06T10:43:56;17.80;;;9.40;;
33403;SDS011;19751;40.274;18.268;2023-01-06T10:46:25;12.50;;;9.27;;
33403;SDS011;19751;40.274;18.268;2023-01-06T10:48:59;14.02;;;8.75;;
33403;SDS011;19751;40.274;18.268;2023-01-06T10:51:33;13.65;;;9.32;;
33403;SDS011;19751;40.274;18.268;2023-01-06T10:54:04;13.18;;;8.65;;
33403;SDS011;19751;40.274;18.268;2023-01-06T10:56:34;11.20;;;7.97;;
33403;SDS011;19751;40.274;18.268;2023-01-06T10:59:10;12.30;;;7.63;;
33403;SDS011;19751;40.274;18.268;2023-01-06T11:01:54;15.40;;;7.45;;
33403;SDS011;19751;40.274;18.268;2023-01-06T11:04:21;9.65;;;6.60;;
33403;SDS011;19751;40.274;18.268;2023-01-06T11:06:52;12.40;;;5.95;;
33403;SDS011;19751;40.274;18.268;2023-01-06T11:09:31;9.60;;;6.47;;
33403;SDS011;19751;40.274;18.268;2023-01-06T11:12:10;7.78;;;5.45;;
33403;SDS011;19751;40.274;18.268;2023-01-06T11:15:00;10.10;;;5.70;;
33403;SDS011;19751;40.274;18.268;2023-01-06T11:17:29;6.97;;;4.88;;
33403;SDS011;19751;40.274;18.268;2023-01-06T11:22:43;8.43;;;4.88;;
33403;SDS011;19751;40.274;18.268;2023-01-06T11:27:48;7.78;;;4.03;;
33403;SDS011;19751;40.274;18.268;2023-01-06T11:30:38;4.68;;;4.15;;
33403;SDS011;19751;40.274;18.268;2023-01-06T11:35:42;6.70;;;4.18;;
33403;SDS011;19751;40.274;18.268;2023-01-06T11:38:10;5.72;;;4.00;;
33403;SDS011;19751;40.274;18.268;2023-01-06T11:40:38;5.35;;;4.30;;
33403;SDS011;19751;40.274;18.268;2023-01-06T11:43:07;6.28;;;4.25;;
33403;SDS011;19751;40.274;18.268;2023-01-06T11:45:38;9.52;;;5.00;;
33403;SDS011;19751;40.274;18.268;2023-01-06T11:48:12;8.80;;;4.35;;
33403;SDS011;19751;40.274;18.268;2023-01-06T11:50:48;6.60;;;4.32;;
33403;SDS011;19751;40.274;18.268;2023-01-06T11:53:19;9.50;;;4.40;;
33403;SDS011;19751;40.274;18.268;2023-01-06T11:58:22;6.57;;;4.15;;
33403;SDS011;19751;40.274;18.268;2023-01-06T12:01:33;7.53;;;5.00;;
33403;SDS011;19751;40.274;18.268;2023-01-06T12:04:12;8.00;;;5.75;;
33403;SDS011;19751;40.274;18.268;2023-01-06T12:06:44;15.13;;;6.15;;
33403;SDS011;19751;40.274;18.268;2023-01-06T12:09:12;9.65;;;5.38;;
33403;SDS011;19751;40.274;18.268;2023-01-06T12:11:54;10.00;;;6.13;;
33403;SDS011;19751;40.274;18.268;2023-01-06T12:14:22;10.65;;;5.38;;
33403;SDS011;19751;40.274;18.268;2023-01-06T12:17:04;11.20;;;6.13;;
33403;SDS011;19751;40.274;18.268;2023-01-06T12:22:20;10.23;;;4.70;;
33403;SDS011;19751;40.274;18.268;2023-01-06T12:24:56;8.27;;;5.72;;
33403;SDS011;19751;40.274;18.268;2023-01-06T12:27:36;10.75;;;6.45;;
33403;SDS011;19751;40.274;18.268;2023-01-06T12:30:10;9.52;;;6.00;;
33403;SDS011;19751;40.274;18.268;2023-01-06T12:32:47;7.55;;;4.20;;
33403;SDS011;19751;40.274;18.268;2023-01-06T12:35:18;7.35;;;3.80;;
33403;SDS011;19751;40.274;18.268;2023-01-06T12:40:50;6.72;;;4.28;;
33403;SDS011;19751;40.274;18.268;2023-01-06T12:43:22;3.55;;;2.83;;
33403;SDS011;19751;40.274;18.268;2023-01-06T12:54:17;4.50;;;3.58;;
33403;SDS011;19751;40.274;18.268;2023-01-06T12:56:59;5.35;;;4.05;;
33403;SDS011;19751;40.274;18.268;2023-01-06T13:02:40;5.88;;;4.25;;
33403;SDS011;19751;40.274;18.268;2023-01-06T13:10:33;5.43;;;3.83;;
33403;SDS011;19751;40.274;18.268;2023-01-06T13:16:12;9.60;;;4.32;;
33403;SDS011;19751;40.274;18.268;2023-01-06T13:22:05;5.90;;;4.10;;
33403;SDS011;19751;40.274;18.268;2023-01-06T13:33:25;5.38;;;3.78;;
33403;SDS011;19751;40.274;18.268;2023-01-06T13:36:06;4.57;;;3.60;;
33403;SDS011;19751;40.274;18.268;2023-01-06T13:39:19;4.70;;;3.47;;
33403;SDS011;19751;40.274;18.268;2023-01-06T13:41:46;9.23;;;4.75;;
33403;SDS011;19751;40.274;18.268;2023-01-06T13:44:18;7.18;;;3.92;;
33403;SDS011;19751;40.274;18.268;2023-01-06T13:46:47;7.10;;;4.25;;
33403;SDS011;19751;40.274;18.268;2023-01-06T13:49:15;8.82;;;5.07;;
33403;SDS011;19751;40.274;18.268;2023-01-06T13:51:41;9.52;;;3.90;;
33403;SDS011;19751;40.274;18.268;2023-01-06T13:59:53;5.38;;;4.75;;
33403;SDS011;19751;40.274;18.268;2023-01-06T14:05:05;5.75;;;3.75;;
33403;SDS011;19751;40.274;18.268;2023-01-06T14:07:35;7.05;;;4.47;;
33403;SDS011;19751;40.274;18.268;2023-01-06T14:10:47;4.27;;;3.70;;
33403;SDS011;19751;40.274;18.268;2023-01-06T14:12:58;5.78;;;3.88;;
33403;SDS011;19751;40.274;18.268;2023-01-06T14:15:26;5.05;;;3.53;;
33403;SDS011;19751;40.274;18.268;2023-01-06T14:17:56;5.00;;;3.45;;
33403;SDS011;19751;40.274;18.268;2023-01-06T14:20:29;7.05;;;4.03;;
33403;SDS011;19751;40.274;18.268;2023-01-06T14:23:31;6.32;;;3.78;;
33403;SDS011;19751;40.274;18.268;2023-01-06T14:25:52;6.70;;;4.53;;
33403;SDS011;19751;40.274;18.268;2023-01-06T14:30:46;6.28;;;3.65;;
33403;SDS011;19751;40.274;18.268;2023-01-06T14:33:29;6.45;;;3.70;;
33403;SDS011;19751;40.274;18.268;2023-01-06T14:36:09;4.93;;;4.13;;
33403;SDS011;19751;40.274;18.268;2023-01-06T14:41:44;9.57;;;4.25;;
33403;SDS011;19751;40.274;18.268;2023-01-06T14:44:17;4.60;;;4.03;;
33403;SDS011;19751;40.274;18.268;2023-01-06T14:46:50;5.35;;;3.83;;
33403;SDS011;19751;40.274;18.268;2023-01-06T14:49:25;8.18;;;4.82;;
33403;SDS011;19751;40.274;18.268;2023-01-06T14:51:56;8.23;;;5.78;;
33403;SDS011;19751;40.274;18.268;2023-01-06T14:54:30;11.23;;;5.90;;
33403;SDS011;19751;40.274;18.268;2023-01-06T14:57:11;7.18;;;5.45;;
33403;SDS011;19751;40.274;18.268;2023-01-06T15:00:04;7.38;;;4.60;;
33403;SDS011;19751;40.274;18.268;2023-01-06T15:02:29;12.50;;;5.70;;
33403;SDS011;19751;40.274;18.268;2023-01-06T15:04:57;8.23;;;5.43;;
33403;SDS011;19751;40.274;18.268;2023-01-06T15:07:26;7.88;;;5.63;;
33403;SDS011;19751;40.274;18.268;2023-01-06T15:09:52;6.43;;;4.63;;
33403;SDS011;19751;40.274;18.268;2023-01-06T15:12:35;7.43;;;4.90;;
33403;SDS011;19751;40.274;18.268;2023-01-06T15:15:23;11.90;;;5.50;;
33403;SDS011;19751;40.274;18.268;2023-01-06T15:17:51;7.05;;;5.00;;
33403;SDS011;19751;40.274;18.268;2023-01-06T15:20:19;8.63;;;5.75;;
33403;SDS011;19751;40.274;18.268;2023-01-06T15:22:51;7.45;;;4.75;;
33403;SDS011;19751;40.274;18.268;2023-01-06T15:25:38;6.35;;;4.40;;
33403;SDS011;19751;40.274;18.268;2023-01-06T15:28:29;7.45;;;4.20;;
33403;SDS011;19751;40.274;18.268;2023-01-06T15:30:55;6.07;;;3.55;;
33403;SDS011;19751;40.274;18.268;2023-01-06T15:33:21;6.90;;;4.03;;
33403;SDS011;19751;40.274;18.268;2023-01-06T15:35:50;6.55;;;4.70;;
33403;SDS011;19751;40.274;18.268;2023-01-06T15:40:46;10.20;;;4.60;;
33403;SDS011;19751;40.274;18.268;2023-01-06T15:43:13;9.20;;;4.30;;
33403;SDS011;19751;40.274;18.268;2023-01-06T15:45:39;4.40;;;3.65;;
33403;SDS011;19751;40.274;18.268;2023-01-06T15:48:08;4.90;;;3.90;;
33403;SDS011;19751;40.274;18.268;2023-01-06T15:50:39;6.43;;;4.18;;
33403;SDS011;19751;40.274;18.268;2023-01-06T15:53:05;6.72;;;4.43;;
33403;SDS011;19751;40.274;18.268;2023-01-06T15:55:47;5.95;;;4.65;;
33403;SDS011;19751;40.274;18.268;2023-01-06T15:58:19;5.57;;;4.35;;
33403;SDS011;19751;40.274;18.268;2023-01-06T16:01:11;4.88;;;3.85;;
33403;SDS011;19751;40.274;18.268;2023-01-06T16:03:43;6.70;;;4.13;;
33403;SDS011;19751;40.274;18.268;2023-01-06T16:06:12;7.47;;;5.40;;
33403;SDS011;19751;40.274;18.268;2023-01-06T16:14:52;6.53;;;4.40;;
33403;SDS011;19751;40.274;18.268;2023-01-06T16:17:21;8.68;;;5.18;;
33403;SDS011;19751;40.274;18.268;2023-01-06T16:19:59;5.55;;;4.25;;
33403;SDS011;19751;40.274;18.268;2023-01-06T16:22:30;6.97;;;4.22;;
33403;SDS011;19751;40.274;18.268;2023-01-06T16:24:56;8.57;;;4.68;;
33403;SDS011;19751;40.274;18.268;2023-01-06T16:27:23;9.05;;;4.95;;
33403;SDS011;19751;40.274;18.268;2023-01-06T16:32:38;8.50;;;5.68;;
33403;SDS011;19751;40.274;18.268;2023-01-06T16:35:09;6.88;;;5.07;;
33403;SDS011;19751;40.274;18.268;2023-01-06T16:37:39;7.03;;;5.38;;
33403;SDS011;19751;40.274;18.268;2023-01-06T16:40:05;9.20;;;5.18;;
33403;SDS011;19751;40.274;18.268;2023-01-06T16:42:32;10.55;;;5.43;;
33403;SDS011;19751;40.274;18.268;2023-01-06T16:45:05;7.20;;;5.65;;
33403;SDS011;19751;40.274;18.268;2023-01-06T16:47:45;7.57;;;5.68;;
33403;SDS011;19751;40.274;18.268;2023-01-06T16:52:39;7.30;;;5.47;;
33403;SDS011;19751;40.274;18.268;2023-01-06T16:55:15;8.30;;;4.97;;
33403;SDS011;19751;40.274;18.268;2023-01-06T16:57:44;6.00;;;5.10;;
33403;SDS011;19751;40.274;18.268;2023-01-06T17:00:13;7.75;;;5.28;;
33403;SDS011;19751;40.274;18.268;2023-01-06T17:02:40;7.45;;;6.50;;
33403;SDS011;19751;40.274;18.268;2023-01-06T17:05:25;9.93;;;7.10;;
33403;SDS011;19751;40.274;18.268;2023-01-06T17:07:58;13.98;;;7.05;;
33403;SDS011;19751;40.274;18.268;2023-01-06T17:10:25;9.68;;;6.53;;
33403;SDS011;19751;40.274;18.268;2023-01-06T17:13:00;12.88;;;7.05;;
33403;SDS011;19751;40.274;18.268;2023-01-06T17:15:49;9.77;;;6.32;;
33403;SDS011;19751;40.274;18.268;2023-01-06T17:18:20;8.45;;;6.30;;
33403;SDS011;19751;40.274;18.268;2023-01-06T17:20:47;11.52;;;6.35;;
33403;SDS011;19751;40.274;18.268;2023-01-06T17:23:14;11.77;;;7.53;;
33403;SDS011;19751;40.274;18.268;2023-01-06T17:25:40;10.57;;;7.82;;
33403;SDS011;19751;40.274;18.268;2023-01-06T17:28:19;10.48;;;7.45;;
33403;SDS011;19751;40.274;18.268;2023-01-06T17:30:47;13.80;;;8.95;;
33403;SDS011;19751;40.274;18.268;2023-01-06T17:33:14;22.52;;;11.90;;
33403;SDS011;19751;40.274;18.268;2023-01-06T17:35:41;17.73;;;11.82;;
33403;SDS011;19751;40.274;18.268;2023-01-06T17:38:21;17.55;;;10.88;;
33403;SDS011;19751;40.274;18.268;2023-01-06T17:40:56;11.60;;;8.45;;
33403;SDS011;19751;40.274;18.268;2023-01-06T17:43:29;14.73;;;9.38;;
33403;SDS011;19751;40.274;18.268;2023-01-06T17:46:00;12.95;;;8.45;;
33403;SDS011;19751;40.274;18.268;2023-01-06T17:48:27;12.48;;;8.13;;
33403;SDS011;19751;40.274;18.268;2023-01-06T17:50:53;15.30;;;8.77;;
33403;SDS011;19751;40.274;18.268;2023-01-06T17:53:29;15.73;;;10.07;;
33403;SDS011;19751;40.274;18.268;2023-01-06T17:56:16;15.93;;;11.07;;
33403;SDS011;19751;40.274;18.268;2023-01-06T17:58:44;20.85;;;13.30;;
33403;SDS011;19751;40.274;18.268;2023-01-06T18:01:14;24.73;;;14.95;;
33403;SDS011;19751;40.274;18.268;2023-01-06T18:03:45;33.92;;;22.33;;
33403;SDS011;19751;40.274;18.268;2023-01-06T18:06:22;36.15;;;23.75;;
33403;SDS011;19751;40.274;18.268;2023-01-06T18:12:06;31.55;;;21.88;;
33403;SDS011;19751;40.274;18.268;2023-01-06T18:14:30;27.83;;;19.42;;
33403;SDS011;19751;40.274;18.268;2023-01-06T18:19:51;30.60;;;20.15;;
33403;SDS011;19751;40.274;18.268;2023-01-06T18:22:18;30.98;;;22.02;;
33403;SDS011;19751;40.274;18.268;2023-01-06T18:24:46;31.52;;;22.17;;
33403;SDS011;19751;40.274;18.268;2023-01-06T18:27:24;28.98;;;21.70;;
33403;SDS011;19751;40.274;18.268;2023-01-06T18:29:52;30.33;;;19.63;;
33403;SDS011;19751;40.274;18.268;2023-01-06T18:35:00;31.60;;;19.33;;
33403;SDS011;19751;40.274;18.268;2023-01-06T18:37:32;34.72;;;20.17;;
33403;SDS011;19751;40.274;18.268;2023-01-06T18:40:00;28.70;;;19.48;;
33403;SDS011;19751;40.274;18.268;2023-01-06T18:42:33;28.95;;;19.90;;
33403;SDS011;19751;40.274;18.268;2023-01-06T18:47:32;32.38;;;22.02;;
33403;SDS011;19751;40.274;18.268;2023-01-06T18:50:01;35.70;;;21.02;;
33403;SDS011;19751;40.274;18.268;2023-01-06T18:52:59;31.55;;;20.20;;
33403;SDS011;19751;40.274;18.268;2023-01-06T18:55:41;34.78;;;21.27;;
33403;SDS011;19751;40.274;18.268;2023-01-06T19:00:36;34.63;;;23.80;;
33403;SDS011;19751;40.274;18.268;2023-01-06T19:03:27;32.60;;;21.55;;
33403;SDS011;19751;40.274;18.268;2023-01-06T19:08:33;40.58;;;23.80;;
33403;SDS011;19751;40.274;18.268;2023-01-06T19:11:02;39.20;;;24.05;;
33403;SDS011;19751;40.274;18.268;2023-01-06T19:13:35;35.80;;;22.50;;
33403;SDS011;19751;40.274;18.268;2023-01-06T19:18:53;28.17;;;19.90;;
33403;SDS011;19751;40.274;18.268;2023-01-06T19:21:24;31.05;;;20.90;;
33403;SDS011;19751;40.274;18.268;2023-01-06T19:23:50;31.23;;;22.23;;
33403;SDS011;19751;40.274;18.268;2023-01-06T19:26:37;30.83;;;19.83;;
33403;SDS011;19751;40.274;18.268;2023-01-06T19:29:08;33.00;;;20.63;;
33403;SDS011;19751;40.274;18.268;2023-01-06T19:31:39;29.55;;;21.27;;
33403;SDS011;19751;40.274;18.268;2023-01-06T19:34:13;39.10;;;25.00;;
33403;SDS011;19751;40.274;18.268;2023-01-06T19:41:56;34.25;;;22.35;;
33403;SDS011;19751;40.274;18.268;2023-01-06T19:44:31;30.60;;;22.20;;
33403;SDS011;19751;40.274;18.268;2023-01-06T19:46:59;40.30;;;22.70;;
33403;SDS011;19751;40.274;18.268;2023-01-06T19:49:37;41.85;;;24.70;;
33403;SDS011;19751;40.274;18.268;2023-01-06T19:52:09;46.60;;;29.77;;
33403;SDS011;19751;40.274;18.268;2023-01-06T19:54:56;35.47;;;23.25;;
33403;SDS011;19751;40.274;18.268;2023-01-06T19:57:37;28.48;;;20.30;;
33403;SDS011;19751;40.274;18.268;2023-01-06T20:00:29;36.45;;;24.63;;
33403;SDS011;19751;40.274;18.268;2023-01-06T20:03:04;39.20;;;21.85;;
33403;SDS011;19751;40.274;18.268;2023-01-06T20:06:12;30.42;;;21.40;;
33403;SDS011;19751;40.274;18.268;2023-01-06T20:08:39;35.22;;;21.83;;
33403;SDS011;19751;40.274;18.268;2023-01-06T20:11:08;31.77;;;20.77;;
33403;SDS011;19751;40.274;18.268;2023-01-06T20:13:34;43.22;;;27.02;;
33403;SDS011;19751;40.274;18.268;2023-01-06T20:16:00;34.38;;;22.30;;
33403;SDS011;19751;40.274;18.268;2023-01-06T20:18:26;38.17;;;23.40;;
33403;SDS011;19751;40.274;18.268;2023-01-06T20:20:53;29.25;;;20.73;;
33403;SDS011;19751;40.274;18.268;2023-01-06T20:23:18;38.95;;;23.70;;
33403;SDS011;19751;40.274;18.268;2023-01-06T20:25:44;34.35;;;20.70;;
33403;SDS011;19751;40.274;18.268;2023-01-06T20:28:10;34.08;;;21.83;;
33403;SDS011;19751;40.274;18.268;2023-01-06T20:30:35;35.53;;;22.63;;
33403;SDS011;19751;40.274;18.268;2023-01-06T20:33:01;40.65;;;26.48;;
33403;SDS011;19751;40.274;18.268;2023-01-06T20:35:26;40.30;;;24.85;;
33403;SDS011;19751;40.274;18.268;2023-01-06T20:37:52;36.60;;;23.55;;
33403;SDS011;19751;40.274;18.268;2023-01-06T20:40:18;36.17;;;23.00;;
33403;SDS011;19751;40.274;18.268;2023-01-06T20:42:43;38.40;;;23.20;;
33403;SDS011;19751;40.274;18.268;2023-01-06T20:45:09;34.95;;;21.38;;
33403;SDS011;19751;40.274;18.268;2023-01-06T20:47:35;32.83;;;23.48;;
33403;SDS011;19751;40.274;18.268;2023-01-06T20:50:00;39.25;;;23.25;;
33403;SDS011;19751;40.274;18.268;2023-01-06T20:52:26;40.05;;;24.35;;
33403;SDS011;19751;40.274;18.268;2023-01-06T20:54:52;36.63;;;22.63;;
33403;SDS011;19751;40.274;18.268;2023-01-06T20:57:17;35.55;;;22.33;;
33403;SDS011;19751;40.274;18.268;2023-01-06T20:59:42;36.78;;;22.95;;
33403;SDS011;19751;40.274;18.268;2023-01-06T21:02:08;36.83;;;22.90;;
33403;SDS011;19751;40.274;18.268;2023-01-06T21:04:33;33.53;;;22.52;;
33403;SDS011;19751;40.274;18.268;2023-01-06T21:07:00;49.28;;;27.85;;
33403;SDS011;19751;40.274;18.268;2023-01-06T21:09:26;48.08;;;27.30;;
33403;SDS011;19751;40.274;18.268;2023-01-06T21:11:53;36.03;;;21.38;;
33403;SDS011;19751;40.274;18.268;2023-01-06T21:14:19;41.53;;;24.85;;
33403;SDS011;19751;40.274;18.268;2023-01-06T21:16:45;35.80;;;21.63;;
33403;SDS011;19751;40.274;18.268;2023-01-06T21:19:11;29.48;;;19.08;;
33403;SDS011;19751;40.274;18.268;2023-01-06T21:21:36;30.48;;;20.80;;
33403;SDS011;19751;40.274;18.268;2023-01-06T21:24:02;34.28;;;22.40;;
33403;SDS011;19751;40.274;18.268;2023-01-06T21:26:28;27.20;;;19.67;;
33403;SDS011;19751;40.274;18.268;2023-01-06T21:28:53;33.53;;;20.58;;
33403;SDS011;19751;40.274;18.268;2023-01-06T21:31:19;32.22;;;23.40;;
33403;SDS011;19751;40.274;18.268;2023-01-06T21:33:44;38.13;;;23.58;;
33403;SDS011;19751;40.274;18.268;2023-01-06T21:36:10;40.75;;;26.92;;
33403;SDS011;19751;40.274;18.268;2023-01-06T21:38:35;38.00;;;22.10;;
33403;SDS011;19751;40.274;18.268;2023-01-06T21:41:01;42.15;;;25.08;;
33403;SDS011;19751;40.274;18.268;2023-01-06T21:43:45;37.03;;;25.08;;
33403;SDS011;19751;40.274;18.268;2023-01-06T21:46:11;39.92;;;26.13;;
33403;SDS011;19751;40.274;18.268;2023-01-06T21:48:36;33.78;;;22.17;;
33403;SDS011;19751;40.274;18.268;2023-01-06T21:51:02;32.97;;;20.70;;
33403;SDS011;19751;40.274;18.268;2023-01-06T21:53:27;37.63;;;23.23;;
33403;SDS011;19751;40.274;18.268;2023-01-06T21:55:54;39.90;;;23.35;;
33403;SDS011;19751;40.274;18.268;2023-01-06T21:58:20;28.60;;;19.65;;
33403;SDS011;19751;40.274;18.268;2023-01-06T22:00:47;34.50;;;22.60;;
33403;SDS011;19751;40.274;18.268;2023-01-06T22:03:12;32.88;;;22.30;;
33403;SDS011;19751;40.274;18.268;2023-01-06T22:05:38;38.53;;;22.27;;
33403;SDS011;19751;40.274;18.268;2023-01-06T22:08:04;30.95;;;20.73;;
33403;SDS011;19751;40.274;18.268;2023-01-06T22:10:30;29.13;;;19.48;;
33403;SDS011;19751;40.274;18.268;2023-01-06T22:12:55;32.45;;;20.45;;
33403;SDS011;19751;40.274;18.268;2023-01-06T22:15:23;38.03;;;21.83;;
33403;SDS011;19751;40.274;18.268;2023-01-06T22:17:50;33.03;;;20.65;;
33403;SDS011;19751;40.274;18.268;2023-01-06T22:20:19;38.92;;;21.63;;
33403;SDS011;19751;40.274;18.268;2023-01-06T22:22:44;30.85;;;19.10;;
33403;SDS011;19751;40.274;18.268;2023-01-06T22:25:11;33.90;;;19.63;;
33403;SDS011;19751;40.274;18.268;2023-01-06T22:27:37;31.00;;;17.92;;
33403;SDS011;19751;40.274;18.268;2023-01-06T22:30:03;30.08;;;17.67;;
33403;SDS011;19751;40.274;18.268;2023-01-06T22:32:29;39.80;;;23.80;;
33403;SDS011;19751;40.274;18.268;2023-01-06T22:34:55;48.55;;;26.25;;
33403;SDS011;19751;40.274;18.268;2023-01-06T22:37:21;32.10;;;20.52;;
33403;SDS011;19751;40.274;18.268;2023-01-06T22:42:15;29.00;;;17.48;;
33403;SDS011;19751;40.274;18.268;2023-01-06T22:44:41;24.33;;;15.95;;
33403;SDS011;19751;40.274;18.268;2023-01-06T22:47:06;23.60;;;14.93;;
33403;SDS011;19751;40.274;18.268;2023-01-06T22:49:31;25.48;;;15.23;;
33403;SDS011;19751;40.274;18.268;2023-01-06T22:51:57;24.48;;;15.95;;
33403;SDS011;19751;40.274;18.268;2023-01-06T22:54:22;28.13;;;18.45;;
33403;SDS011;19751;40.274;18.268;2023-01-06T22:56:48;26.90;;;17.10;;
33403;SDS011;19751;40.274;18.268;2023-01-06T22:59:13;31.35;;;17.33;;
33403;SDS011;19751;40.274;18.268;2023-01-06T23:01:39;29.63;;;18.08;;
33403;SDS011;19751;40.274;18.268;2023-01-06T23:04:04;30.92;;;17.63;;
33403;SDS011;19751;40.274;18.268;2023-01-06T23:06:30;28.63;;;18.38;;
33403;SDS011;19751;40.274;18.268;2023-01-06T23:08:55;28.48;;;17.67;;
33403;SDS011;19751;40.274;18.268;2023-01-06T23:11:21;26.13;;;17.65;;
33403;SDS011;19751;40.274;18.268;2023-01-06T23:13:46;30.70;;;18.95;;
33403;SDS011;19751;40.274;18.268;2023-01-06T23:18:41;31.52;;;18.65;;
33403;SDS011;19751;40.274;18.268;2023-01-06T23:21:10;28.77;;;17.83;;
33403;SDS011;19751;40.274;18.268;2023-01-06T23:23:38;34.53;;;19.90;;
33403;SDS011;19751;40.274;18.268;2023-01-06T23:26:18;31.73;;;17.63;;
33403;SDS011;19751;40.274;18.268;2023-01-06T23:28:48;25.33;;;16.57;;
33403;SDS011;19751;40.274;18.268;2023-01-06T23:31:16;30.23;;;18.55;;
33403;SDS011;19751;40.274;18.268;2023-01-06T23:33:44;28.90;;;18.08;;
33403;SDS011;19751;40.274;18.268;2023-01-06T23:36:12;29.13;;;18.60;;
33403;SDS011;19751;40.274;18.268;2023-01-06T23:38:39;30.38;;;18.75;;
33403;SDS011;19751;40.274;18.268;2023-01-06T23:43:32;28.35;;;17.92;;
33403;SDS011;19751;40.274;18.268;2023-01-06T23:46:02;29.45;;;17.42;;
33403;SDS011;19751;40.274;18.268;2023-01-06T23:48:32;27.98;;;17.35;;
33403;SDS011;19751;40.274;18.268;2023-01-06T23:50:59;24.38;;;15.90;;
33403;SDS011;19751;40.274;18.268;2023-01-06T23:53:25;27.75;;;17.27;;
33403;SDS011;19751;40.274;18.268;2023-01-06T23:55:56;29.38;;;20.38;;
33403;SDS011;19751;40.274;18.268;2023-01-06T23:58:27;32.47;;;20.35;;
